Time;durP1;ratioP1;P1;durP2;ratioP2;P2;SDS_P1;SDS_P2;PMS_P1;PMS_P2;Temp;Humidity;BMP_temperature;BMP_pressure;BME280_temperature;BME280_humidity;BME280_pressure;Samples;Min_cycle;Max_cycle;Signal;HPM_P1;HPM_P2
2023/08/09 00:00:31;;;;;;;;;;;20.50;68.90;;;;;;4998028;28;1906;-70
2023/08/09 00:02:58;;;;;;;;;;;20.50;68.90;;;;;;4985905;28;903;-70
2023/08/09 00:05:24;;;;;;;;;;;20.50;69.00;;;;;;4997713;28;1295;-70
2023/08/09 00:07:49;;;;;;;;;;;20.50;68.90;;;;;;4998864;28;860;-70
2023/08/09 00:10:15;;;;;;;;;;;20.50;68.90;;;;;;4999354;28;867;-70
2023/08/09 00:12:40;;;;;;;;;;;20.50;69.00;;;;;;4997988;28;896;-69
2023/08/09 00:15:06;;;;;;;;;;;20.50;68.90;;;;;;4997850;28;1221;-69
2023/08/09 00:17:31;;;;;;;;;;;20.50;68.90;;;;;;4995312;28;880;-69
2023/08/09 00:19:57;;;;;;;;;;;20.50;69.00;;;;;;4996329;28;1335;-70
2023/08/09 00:22:23;;;;;;;;;;;20.50;68.90;;;;;;4996914;28;1906;-70
2023/08/09 00:24:48;;;;;;;;;;;20.50;69.00;;;;;;4996538;28;1215;-70
2023/08/09 00:27:14;;;;;;;;;;;20.50;69.00;;;;;;5001228;28;1453;-69
2023/08/09 00:29:40;;;;;;;;;;;20.50;69.00;;;;;;4999344;28;869;-69
2023/08/09 00:32:05;;;;;;;;;;;20.50;69.00;;;;;;4999442;28;856;-69
2023/08/09 00:34:31;;;;;;;;;;;20.50;69.10;;;;;;4997280;28;1373;-69
2023/08/09 00:36:56;;;;;;;;;;;20.50;69.00;;;;;;4997795;28;1086;-69
2023/08/09 00:39:21;;;;;;;;;;;20.50;69.10;;;;;;4998823;28;1031;-69
2023/08/09 00:41:47;;;;;;;;;;;20.50;69.10;;;;;;4998212;28;1974;-69
2023/08/09 00:44:12;;;;;;;;;;;20.50;69.00;;;;;;4994623;28;878;-69
2023/08/09 00:46:38;;;;;;;;;;;20.50;69.10;;;;;;4997715;28;1255;-69
2023/08/09 00:49:04;;;;;;;;;;;20.50;69.10;;;;;;4996567;28;1007;-69
2023/08/09 00:51:29;;;;;;;;;;;20.50;69.10;;;;;;4991061;28;1182;-69
2023/08/09 00:53:55;;;;;;;;;;;20.50;69.10;;;;;;4997196;28;899;-69
2023/08/09 00:56:20;;;;;;;;;;;20.50;69.10;;;;;;4993720;28;1280;-68
2023/08/09 00:58:46;;;;;;;;;;;20.50;69.10;;;;;;4996685;28;880;-70
2023/08/09 01:01:11;;;;;;;;;;;20.50;69.10;;;;;;5001086;28;1894;-70
2023/08/09 01:03:37;;;;;;;;;;;20.50;69.20;;;;;;4996949;28;940;-69
2023/08/09 01:06:05;;;;;;;;;;;20.50;69.20;;;;;;4999947;28;1256;-70
2023/08/09 01:08:43;;;;;;;;;;;20.50;69.20;;;;;;4981420;28;828;-70
2023/08/09 01:11:10;;;;;;;;;;;20.50;69.10;;;;;;4997383;28;908;-70
2023/08/09 01:13:38;;;;;;;;;;;20.50;69.10;;;;;;4998786;28;858;-71
2023/08/09 01:16:05;;;;;;;;;;;20.50;69.10;;;;;;4984033;28;1258;-71
2023/08/09 01:18:30;;;;;;;;;;;20.50;69.10;;;;;;4994772;28;1306;-71
2023/08/09 01:20:56;;;;;;;;;;;20.50;69.10;;;;;;4999015;28;1985;-71
2023/08/09 01:23:21;;;;;;;;;;;20.50;69.50;;;;;;4996906;28;903;-71
2023/08/09 01:25:48;;;;;;;;;;;20.50;69.20;;;;;;4998274;28;1350;-71
2023/08/09 01:28:14;;;;;;;;;;;20.50;69.20;;;;;;4989696;28;1362;-71
2023/08/09 01:30:40;;;;;;;;;;;20.50;69.20;;;;;;4999808;28;913;-69
2023/08/09 01:33:05;;;;;;;;;;;20.50;69.20;;;;;;5002905;28;895;-69
2023/08/09 01:35:34;;;;;;;;;;;20.50;69.30;;;;;;4982476;28;1268;-69
2023/08/09 01:38:04;;;;;;;;;;;20.50;69.20;;;;;;5001717;28;884;-69
2023/08/09 01:40:30;;;;;;;;;;;20.50;69.20;;;;;;4997240;28;1964;-69
2023/08/09 01:42:55;;;;;;;;;;;20.50;69.20;;;;;;4995881;28;959;-69
2023/08/09 01:45:21;;;;;;;;;;;20.50;69.30;;;;;;5000186;28;1367;-69
2023/08/09 01:47:46;;;;;;;;;;;20.50;69.20;;;;;;4999832;28;880;-69
2023/08/09 01:50:19;;;;;;;;;;;20.50;69.30;;;;;;4969491;28;1111;-69
2023/08/09 01:52:44;;;;;;;;;;;20.50;69.30;;;;;;4987257;28;1023;-69
2023/08/09 01:55:13;;;;;;;;;;;20.50;69.30;;;;;;4998355;28;1263;-69
2023/08/09 01:57:39;;;;;;;;;;;20.50;69.20;;;;;;4998791;28;841;-69
2023/08/09 02:00:05;;;;;;;;;;;20.50;69.20;;;;;;4997166;28;849;-69
2023/08/09 02:02:31;;;;;;;;;;;20.50;69.20;;;;;;5000439;28;1898;-70
2023/08/09 02:04:56;;;;;;;;;;;20.50;69.30;;;;;;5003127;28;1245;-70
2023/08/09 02:07:22;;;;;;;;;;;20.50;69.20;;;;;;5003582;28;869;-70
2023/08/09 02:09:47;;;;;;;;;;;20.50;69.30;;;;;;4999738;28;884;-70
2023/08/09 02:12:12;;;;;;;;;;;20.50;69.20;;;;;;5004419;28;812;-69
2023/08/09 02:14:38;;;;;;;;;;;20.50;69.30;;;;;;4999798;28;1267;-69
2023/08/09 02:17:05;;;;;;;;;;;20.50;69.30;;;;;;4998786;28;898;-69
2023/08/09 02:19:30;;;;;;;;;;;20.50;70.00;;;;;;5000526;28;1288;-71
2023/08/09 02:21:56;;;;;;;;;;;20.50;69.30;;;;;;5003992;28;1902;-71
2023/08/09 02:24:23;;;;;;;;;;;20.50;69.30;;;;;;5004216;28;1259;-71
2023/08/09 02:26:48;;;;;;;;;;;20.50;69.30;;;;;;5004489;28;1329;-69
2023/08/09 02:29:14;;;;;;;;;;;20.50;69.30;;;;;;5001484;28;1256;-68
2023/08/09 02:31:40;;;;;;;;;;;20.50;69.30;;;;;;5001271;28;891;-70
2023/08/09 02:34:06;;;;;;;;;;;20.50;69.40;;;;;;5000867;28;927;-69
2023/08/09 02:36:31;;;;;;;;;;;20.50;69.40;;;;;;5000634;28;1289;-70
2023/08/09 02:38:56;;;;;;;;;;;20.50;69.40;;;;;;5002717;28;995;-70
2023/08/09 02:41:23;;;;;;;;;;;20.50;69.40;;;;;;4999319;28;1978;-70
2023/08/09 02:43:48;;;;;;;;;;;20.50;69.40;;;;;;4999405;28;986;-70
2023/08/09 02:46:14;;;;;;;;;;;20.50;69.40;;;;;;5000223;28;1276;-69
2023/08/09 02:48:39;;;;;;;;;;;20.50;69.40;;;;;;4995805;28;849;-69
2023/08/09 02:51:05;;;;;;;;;;;20.50;69.40;;;;;;5000234;28;904;-69
2023/08/09 02:53:35;;;;;;;;;;;20.50;69.50;;;;;;4996643;28;908;-69
2023/08/09 02:56:00;;;;;;;;;;;20.50;69.40;;;;;;4999379;28;1429;-69
2023/08/09 02:58:26;;;;;;;;;;;20.50;69.50;;;;;;5001069;28;956;-69
2023/08/09 03:00:51;;;;;;;;;;;20.50;69.40;;;;;;5000413;28;1906;-69
2023/08/09 03:03:17;;;;;;;;;;;20.50;69.40;;;;;;5000321;28;1066;-69
2023/08/09 03:05:42;;;;;;;;;;;20.50;69.40;;;;;;4991942;28;1253;-69
2023/08/09 03:08:08;;;;;;;;;;;20.50;69.50;;;;;;5000929;28;844;-69
2023/08/09 03:10:33;;;;;;;;;;;20.50;69.50;;;;;;5001137;28;991;-69
2023/08/09 03:12:58;;;;;;;;;;;20.50;69.50;;;;;;4998039;28;1654;-69
2023/08/09 03:15:24;;;;;;;;;;;20.50;69.50;;;;;;4997735;28;1280;-69
2023/08/09 03:17:49;;;;;;;;;;;20.50;69.50;;;;;;5001586;28;1018;-69
2023/08/09 03:20:15;;;;;;;;;;;20.50;69.50;;;;;;4996604;28;1286;-69
2023/08/09 03:22:44;;;;;;;;;;;20.50;69.50;;;;;;4999162;28;1907;-69
2023/08/09 03:25:10;;;;;;;;;;;20.50;69.50;;;;;;5001597;28;1327;-69
2023/08/09 03:27:35;;;;;;;;;;;20.50;69.50;;;;;;5000107;28;1342;-69
2023/08/09 03:30:01;;;;;;;;;;;20.50;69.50;;;;;;4999282;28;927;-70
2023/08/09 03:32:27;;;;;;;;;;;20.50;69.50;;;;;;4999229;28;852;-69
2023/08/09 03:34:52;;;;;;;;;;;20.50;69.50;;;;;;4994724;28;1354;-69
2023/08/09 03:37:18;;;;;;;;;;;20.50;69.50;;;;;;5001039;28;857;-69
2023/08/09 03:39:43;;;;;;;;;;;20.50;69.50;;;;;;4999547;28;1140;-69
2023/08/09 03:42:08;;;;;;;;;;;20.50;69.50;;;;;;5000697;28;1922;-69
2023/08/09 03:44:34;;;;;;;;;;;20.50;69.50;;;;;;4999664;28;1354;-69
2023/08/09 03:46:59;;;;;;;;;;;20.50;69.50;;;;;;4996446;28;835;-69
2023/08/09 03:49:25;;;;;;;;;;;20.50;69.50;;;;;;4998585;28;905;-69
2023/08/09 03:51:50;;;;;;;;;;;20.50;69.50;;;;;;4999825;28;885;-69
2023/08/09 03:54:16;;;;;;;;;;;20.50;69.60;;;;;;4999968;28;872;-69
2023/08/09 03:56:41;;;;;;;;;;;20.50;69.60;;;;;;4998040;28;1333;-69
2023/08/09 03:59:07;;;;;;;;;;;20.50;69.60;;;;;;4998221;28;1252;-69
2023/08/09 04:01:33;;;;;;;;;;;20.50;69.60;;;;;;5000344;28;1902;-69
2023/08/09 04:03:58;;;;;;;;;;;20.50;69.60;;;;;;4999029;28;808;-69
2023/08/09 04:06:24;;;;;;;;;;;20.50;69.60;;;;;;4999645;28;1276;-69
2023/08/09 04:08:49;;;;;;;;;;;20.50;69.60;;;;;;4999155;28;1024;-69
2023/08/09 04:11:15;;;;;;;;;;;20.50;69.60;;;;;;4998173;28;906;-69
2023/08/09 04:13:41;;;;;;;;;;;20.50;69.60;;;;;;4996798;28;797;-69
2023/08/09 04:16:06;;;;;;;;;;;20.50;69.60;;;;;;5000398;28;1235;-69
2023/08/09 04:18:32;;;;;;;;;;;20.50;69.60;;;;;;4982844;28;951;-69
2023/08/09 04:20:58;;;;;;;;;;;20.50;69.60;;;;;;4996629;28;1894;-69
2023/08/09 04:23:24;;;;;;;;;;;20.50;69.60;;;;;;5000730;28;920;-69
2023/08/09 04:25:49;;;;;;;;;;;20.50;69.70;;;;;;4999352;28;1246;-71
2023/08/09 04:28:15;;;;;;;;;;;20.50;69.70;;;;;;4992501;28;2048;-74
2023/08/09 04:30:40;;;;;;;;;;;20.50;69.60;;;;;;4989584;28;1464;-70
2023/08/09 04:33:06;;;;;;;;;;;20.50;69.60;;;;;;4999996;28;1195;-68
2023/08/09 04:35:31;;;;;;;;;;;20.50;69.70;;;;;;4996142;28;1233;-69
2023/08/09 04:37:57;;;;;;;;;;;20.50;69.70;;;;;;4995990;28;2105;-74
2023/08/09 04:40:24;;;;;;;;;;;20.50;69.60;;;;;;4995767;28;2244;-74
2023/08/09 04:42:50;;;;;;;;;;;20.50;69.70;;;;;;5002299;28;1042;-74
2023/08/09 04:45:16;;;;;;;;;;;20.50;69.70;;;;;;5000911;28;1386;-73
2023/08/09 04:47:41;;;;;;;;;;;20.50;69.70;;;;;;5000114;28;865;-74
2023/08/09 04:50:07;;;;;;;;;;;20.50;69.70;;;;;;4996543;28;855;-73
2023/08/09 04:52:33;;;;;;;;;;;20.50;69.70;;;;;;4994551;28;853;-72
2023/08/09 04:54:58;;;;;;;;;;;20.50;69.70;;;;;;4998359;28;1674;-76
2023/08/09 04:57:24;;;;;;;;;;;20.50;69.80;;;;;;4994922;28;923;-74
2023/08/09 04:59:49;;;;;;;;;;;20.50;69.70;;;;;;4985770;28;1162;-71
2023/08/09 05:02:14;;;;;;;;;;;20.50;69.70;;;;;;4998041;28;1903;-71
2023/08/09 05:04:40;;;;;;;;;;;20.50;69.70;;;;;;5000747;28;1358;-72
2023/08/09 05:07:05;;;;;;;;;;;20.50;69.70;;;;;;4998825;28;856;-71
2023/08/09 05:09:31;;;;;;;;;;;20.50;69.70;;;;;;4998170;28;1341;-71
2023/08/09 05:11:58;;;;;;;;;;;20.50;69.80;;;;;;4994161;28;1312;-71
2023/08/09 05:14:24;;;;;;;;;;;20.50;69.70;;;;;;5005268;28;1339;-74
2023/08/09 05:16:49;;;;;;;;;;;20.50;69.80;;;;;;4985971;28;964;-72
2023/08/09 05:19:15;;;;;;;;;;;20.50;69.80;;;;;;5002022;28;1307;-72
2023/08/09 05:21:40;;;;;;;;;;;20.50;69.80;;;;;;4985486;28;1971;-72
2023/08/09 05:24:06;;;;;;;;;;;20.50;69.80;;;;;;5000521;28;923;-73
2023/08/09 05:26:31;;;;;;;;;;;20.50;69.80;;;;;;5000139;28;1377;-75
2023/08/09 05:28:57;;;;;;;;;;;20.50;69.80;;;;;;5002885;28;1265;-75
2023/08/09 05:31:22;;;;;;;;;;;20.50;69.80;;;;;;5001095;28;861;-72
2023/08/09 05:33:47;;;;;;;;;;;20.50;69.80;;;;;;5004358;28;1102;-71
2023/08/09 05:36:13;;;;;;;;;;;20.50;69.80;;;;;;4998217;28;1304;-70
2023/08/09 05:38:38;;;;;;;;;;;20.50;69.80;;;;;;4996320;28;1599;-70
2023/08/09 05:41:04;;;;;;;;;;;20.50;69.80;;;;;;5001378;28;1958;-71
2023/08/09 05:43:29;;;;;;;;;;;20.50;69.80;;;;;;5003426;28;861;-70
2023/08/09 05:45:55;;;;;;;;;;;20.50;69.80;;;;;;5000354;28;1365;-73
2023/08/09 05:48:20;;;;;;;;;;;20.50;69.80;;;;;;5000066;28;836;-70
2023/08/09 05:50:46;;;;;;;;;;;20.50;69.80;;;;;;4998931;28;1019;-72
2023/08/09 05:53:12;;;;;;;;;;;20.50;69.90;;;;;;5004179;28;868;-73
2023/08/09 05:55:39;;;;;;;;;;;20.50;70.50;;;;;;5001123;28;1331;-73
2023/08/09 05:58:05;;;;;;;;;;;20.50;69.80;;;;;;4984324;28;947;-73
2023/08/09 06:00:31;;;;;;;;;;;20.50;69.80;;;;;;4999538;28;1890;-73
2023/08/09 06:02:56;;;;;;;;;;;20.50;69.90;;;;;;5002657;28;856;-73
2023/08/09 06:05:25;;;;;;;;;;;20.50;69.90;;;;;;4983808;28;1275;-73
2023/08/09 06:07:51;;;;;;;;;;;20.50;69.80;;;;;;4997782;28;915;-73
2023/08/09 06:10:16;;;;;;;;;;;20.50;69.90;;;;;;4988507;28;1367;-73
2023/08/09 06:12:42;;;;;;;;;;;20.50;69.90;;;;;;5000165;28;1052;-73
2023/08/09 06:15:08;;;;;;;;;;;20.50;69.90;;;;;;4989816;28;1300;-73
2023/08/09 06:17:33;;;;;;;;;;;20.50;69.80;;;;;;4999770;28;878;-70
2023/08/09 06:19:59;;;;;;;;;;;20.50;69.90;;;;;;4998522;28;1322;-70
2023/08/09 06:22:24;;;;;;;;;;;20.50;69.80;;;;;;4999272;28;2000;-72
2023/08/09 06:24:50;;;;;;;;;;;20.50;69.90;;;;;;4992244;28;1326;-71
2023/08/09 06:27:15;;;;;;;;;;;20.50;69.90;;;;;;5001305;28;1797;-71
2023/08/09 06:29:40;;;;;;;;;;;20.50;69.90;;;;;;4998700;28;2009;-71
2023/08/09 06:32:06;;;;;;;;;;;20.50;69.90;;;;;;5000517;28;1442;-73
2023/08/09 06:34:32;;;;;;;;;;;20.50;69.90;;;;;;5000624;28;1370;-72
2023/08/09 06:36:57;;;;;;;;;;;20.50;69.90;;;;;;4998375;28;893;-70
2023/08/09 06:39:24;;;;;;;;;;;20.50;69.90;;;;;;4997886;28;1104;-74
2023/08/09 06:41:49;;;;;;;;;;;20.50;69.90;;;;;;4998917;28;2043;-72
2023/08/09 06:44:16;;;;;;;;;;;20.50;70.00;;;;;;5000846;28;1316;-73
2023/08/09 06:46:43;;;;;;;;;;;20.50;70.00;;;;;;5001791;28;1901;-71
2023/08/09 06:49:08;;;;;;;;;;;20.50;69.90;;;;;;4999195;28;845;-71
2023/08/09 06:51:33;;;;;;;;;;;20.50;70.00;;;;;;5000346;28;1208;-72
2023/08/09 06:53:59;;;;;;;;;;;20.50;70.70;;;;;;5002244;28;793;-72
2023/08/09 06:56:24;;;;;;;;;;;20.50;70.00;;;;;;4997206;28;1340;-72
2023/08/09 06:58:50;;;;;;;;;;;20.50;69.90;;;;;;4998999;28;838;-72
2023/08/09 07:01:15;;;;;;;;;;;20.50;69.90;;;;;;5002931;28;1969;-72
2023/08/09 07:03:41;;;;;;;;;;;20.50;70.00;;;;;;4999276;28;806;-72
2023/08/09 07:06:06;;;;;;;;;;;20.50;70.00;;;;;;5001618;28;1347;-72
2023/08/09 07:08:32;;;;;;;;;;;20.50;70.00;;;;;;5001434;28;887;-72
2023/08/09 07:10:58;;;;;;;;;;;20.50;70.00;;;;;;4999061;28;943;-72
2023/08/09 07:13:25;;;;;;;;;;;20.50;70.00;;;;;;5000608;28;883;-71
2023/08/09 07:15:51;;;;;;;;;;;20.50;70.00;;;;;;4984482;28;1255;-72
2023/08/09 07:18:16;;;;;;;;;;;20.50;70.00;;;;;;4984572;28;1316;-72
2023/08/09 07:20:41;;;;;;;;;;;20.50;70.00;;;;;;4995468;28;1965;-72
2023/08/09 07:23:07;;;;;;;;;;;20.50;70.10;;;;;;5001135;28;1255;-72
2023/08/09 07:25:32;;;;;;;;;;;20.50;70.00;;;;;;4998356;28;1300;-71
2023/08/09 07:27:58;;;;;;;;;;;20.50;70.00;;;;;;5000450;28;1261;-72
2023/08/09 07:30:24;;;;;;;;;;;20.50;70.00;;;;;;5000745;28;892;-72
2023/08/09 07:32:49;;;;;;;;;;;20.50;70.00;;;;;;5000550;28;828;-72
2023/08/09 07:35:15;;;;;;;;;;;20.50;70.10;;;;;;4987564;28;1284;-72
2023/08/09 07:37:41;;;;;;;;;;;20.50;70.00;;;;;;4996443;28;789;-72
2023/08/09 07:40:07;;;;;;;;;;;20.50;70.10;;;;;;4997691;28;869;-72
2023/08/09 07:42:33;;;;;;;;;;;20.50;70.00;;;;;;5000829;28;1974;-72
2023/08/09 07:44:59;;;;;;;;;;;20.50;70.10;;;;;;4985115;28;1298;-72
2023/08/09 07:47:24;;;;;;;;;;;20.50;70.00;;;;;;5001583;28;817;-72
2023/08/09 07:49:50;;;;;;;;;;;20.50;70.00;;;;;;4997033;28;896;-72
2023/08/09 07:52:15;;;;;;;;;;;20.50;70.00;;;;;;5000736;28;1205;-72
2023/08/09 07:54:41;;;;;;;;;;;20.50;70.10;;;;;;4996556;28;1254;-72
2023/08/09 07:57:06;;;;;;;;;;;20.50;70.10;;;;;;4991784;28;944;-72
2023/08/09 07:59:32;;;;;;;;;;;20.50;70.00;;;;;;5000951;28;1200;-72
2023/08/09 08:01:58;;;;;;;;;;;20.50;70.10;;;;;;5000662;28;1894;-72
2023/08/09 08:04:23;;;;;;;;;;;20.50;70.10;;;;;;4999757;28;1310;-72
2023/08/09 08:06:49;;;;;;;;;;;20.50;70.10;;;;;;4997503;28;902;-72
2023/08/09 08:09:14;;;;;;;;;;;20.50;70.10;;;;;;4986186;28;2125;-72
2023/08/09 08:11:40;;;;;;;;;;;20.50;70.10;;;;;;4998986;28;980;-72
2023/08/09 08:14:06;;;;;;;;;;;20.50;70.10;;;;;;4999632;28;825;-72
2023/08/09 08:16:31;;;;;;;;;;;20.50;70.10;;;;;;4998948;28;1256;-72
2023/08/09 08:18:57;;;;;;;;;;;20.50;70.10;;;;;;4996904;28;1435;-72
2023/08/09 08:21:22;;;;;;;;;;;20.50;70.20;;;;;;4997320;28;1957;-72
2023/08/09 08:23:48;;;;;;;;;;;20.50;70.10;;;;;;4998142;28;852;-72
2023/08/09 08:26:15;;;;;;;;;;;20.50;70.10;;;;;;4999970;28;1227;-72
2023/08/09 08:28:40;;;;;;;;;;;20.50;70.10;;;;;;4998686;28;1107;-71
2023/08/09 08:31:07;;;;;;;;;;;20.50;70.10;;;;;;5003370;28;951;-72
2023/08/09 08:33:33;;;;;;;;;;;20.50;70.10;;;;;;4998441;28;921;-72
2023/08/09 08:35:59;;;;;;;;;;;20.50;70.20;;;;;;4995403;28;1338;-72
2023/08/09 08:38:24;;;;;;;;;;;20.50;70.10;;;;;;4995580;28;1882;-71
2023/08/09 08:40:50;;;;;;;;;;;20.50;70.10;;;;;;5002133;28;1972;-71
2023/08/09 08:43:15;;;;;;;;;;;20.50;70.10;;;;;;4997425;28;1173;-71
2023/08/09 08:45:40;;;;;;;;;;;20.50;70.10;;;;;;4995416;28;1348;-71
2023/08/09 08:48:06;;;;;;;;;;;20.50;70.20;;;;;;4982417;28;874;-71
2023/08/09 08:50:32;;;;;;;;;;;20.50;70.10;;;;;;4996400;28;912;-70
2023/08/09 08:52:57;;;;;;;;;;;20.50;70.10;;;;;;4993926;28;840;-70
2023/08/09 08:55:23;;;;;;;;;;;20.50;70.10;;;;;;4998093;28;1356;-71
2023/08/09 08:57:49;;;;;;;;;;;20.50;70.20;;;;;;4984826;28;969;-71
2023/08/09 09:00:18;;;;;;;;;;;20.50;70.10;;;;;;4994494;28;1541;-71
2023/08/09 09:02:44;;;;;;;;;;;20.50;70.10;;;;;;4965932;28;1910;-71
2023/08/09 09:05:10;;;;;;;;;;;20.50;70.20;;;;;;4982993;28;1282;-71
2023/08/09 09:07:36;;;;;;;;;;;20.50;70.20;;;;;;4997030;28;837;-71
2023/08/09 09:10:05;;;;;;;;;;;20.50;70.10;;;;;;4998556;28;866;-71
2023/08/09 09:12:37;;;;;;;;;;;20.50;70.20;;;;;;4983548;28;1094;-71
2023/08/09 09:15:04;;;;;;;;;;;20.50;70.20;;;;;;4997084;28;1295;-71
2023/08/09 09:17:30;;;;;;;;;;;20.50;70.20;;;;;;5001033;28;849;-71
2023/08/09 09:19:55;;;;;;;;;;;20.50;70.20;;;;;;4999474;28;994;-71
2023/08/09 09:22:27;;;;;;;;;;;20.50;70.20;;;;;;4983087;28;1902;-71
2023/08/09 09:24:54;;;;;;;;;;;20.50;70.20;;;;;;4995295;28;1237;-71
2023/08/09 09:27:25;;;;;;;;;;;20.50;70.20;;;;;;4996153;28;1295;-71
2023/08/09 09:29:52;;;;;;;;;;;20.50;70.20;;;;;;4998497;28;891;-71
2023/08/09 09:32:18;;;;;;;;;;;20.50;70.20;;;;;;4996859;28;853;-71
2023/08/09 09:34:44;;;;;;;;;;;20.50;70.20;;;;;;4999075;28;1374;-71
2023/08/09 09:37:10;;;;;;;;;;;20.50;70.20;;;;;;4998575;28;942;-71
2023/08/09 09:39:37;;;;;;;;;;;20.50;70.20;;;;;;4986502;28;864;-72
2023/08/09 09:42:03;;;;;;;;;;;20.50;70.20;;;;;;4994887;28;1954;-71
2023/08/09 09:44:29;;;;;;;;;;;20.50;70.30;;;;;;4998094;28;1245;-71
2023/08/09 09:46:54;;;;;;;;;;;20.50;70.30;;;;;;5000354;28;851;-71
2023/08/09 09:49:20;;;;;;;;;;;20.50;70.30;;;;;;5001773;28;851;-70
2023/08/09 09:51:46;;;;;;;;;;;20.50;70.20;;;;;;5000604;28;883;-72
2023/08/09 09:54:11;;;;;;;;;;;20.50;70.20;;;;;;4985410;28;859;-71
2023/08/09 09:56:37;;;;;;;;;;;20.50;70.20;;;;;;4986365;28;1345;-71
2023/08/09 09:59:07;;;;;;;;;;;20.50;70.30;;;;;;4999377;28;836;-71
2023/08/09 10:01:32;;;;;;;;;;;20.50;70.30;;;;;;4984921;28;1906;-72
2023/08/09 10:04:00;;;;;;;;;;;20.50;70.20;;;;;;5001164;28;1097;-72
2023/08/09 10:06:27;;;;;;;;;;;20.50;70.30;;;;;;4986412;28;1331;-71
2023/08/09 10:08:53;;;;;;;;;;;20.50;70.20;;;;;;4998563;28;1223;-70
2023/08/09 10:11:19;;;;;;;;;;;20.50;70.20;;;;;;4992334;28;849;-74
2023/08/09 10:13:44;;;;;;;;;;;20.50;70.30;;;;;;4987472;28;897;-71
2023/08/09 10:16:10;;;;;;;;;;;20.50;70.20;;;;;;4994115;28;1285;-73
2023/08/09 10:18:40;;;;;;;;;;;20.50;70.20;;;;;;4987956;28;1432;-72
2023/08/09 10:21:05;;;;;;;;;;;20.50;70.30;;;;;;4999785;28;1906;-71
2023/08/09 10:23:31;;;;;;;;;;;20.50;70.20;;;;;;5000393;28;928;-72
2023/08/09 10:25:57;;;;;;;;;;;20.50;70.30;;;;;;4997045;28;1252;-71
2023/08/09 10:28:37;;;;;;;;;;;20.50;70.30;;;;;;4999528;28;1362;-71
2023/08/09 10:31:03;;;;;;;;;;;20.50;70.30;;;;;;5001972;28;1371;-75
2023/08/09 10:33:28;;;;;;;;;;;20.50;71.10;;;;;;4988169;28;896;-74
2023/08/09 10:35:54;;;;;;;;;;;20.50;70.30;;;;;;4985061;28;1314;-70
2023/08/09 10:38:19;;;;;;;;;;;20.50;70.30;;;;;;4993942;28;912;-70
2023/08/09 10:40:51;;;;;;;;;;;20.50;70.20;;;;;;4998726;28;2176;-70
2023/08/09 10:43:21;;;;;;;;;;;20.50;70.30;;;;;;4998893;28;2385;-70
2023/08/09 10:45:46;;;;;;;;;;;20.50;70.30;;;;;;4998940;28;1386;-70
2023/08/09 10:48:30;;;;;;;;;;;20.50;70.30;;;;;;4995474;28;1316;-70
2023/08/09 10:51:22;;;;;;;;;;;20.50;70.20;;;;;;4990779;28;1110;-70
2023/08/09 10:53:57;;;;;;;;;;;20.50;70.30;;;;;;4996411;28;1030;-70
2023/08/09 10:56:41;;;;;;;;;;;20.50;70.30;;;;;;4998372;28;1287;-70
2023/08/09 10:59:07;;;;;;;;;;;20.50;70.30;;;;;;4997519;28;892;-70
2023/08/09 11:01:33;;;;;;;;;;;20.50;70.30;;;;;;4995748;28;1883;-70
2023/08/09 11:03:59;;;;;;;;;;;20.50;70.30;;;;;;5000283;28;896;-70
2023/08/09 11:06:51;;;;;;;;;;;20.50;70.30;;;;;;4999140;28;1275;-70
2023/08/09 11:09:16;;;;;;;;;;;20.50;70.30;;;;;;4997114;28;1850;-70
2023/08/09 11:11:42;;;;;;;;;;;20.50;70.30;;;;;;4998066;28;2153;-69
2023/08/09 11:14:08;;;;;;;;;;;20.50;70.10;;;;;;5000548;28;1534;-70
2023/08/09 11:16:34;;;;;;;;;;;20.50;70.10;;;;;;5000543;28;1386;-70
2023/08/09 11:19:03;;;;;;;;;;;20.50;70.20;;;;;;4984655;28;1019;-70
2023/08/09 11:21:49;;;;;;;;;;;20.50;70.20;;;;;;4999447;28;1988;-70
2023/08/09 11:24:19;;;;;;;;;;;20.50;70.20;;;;;;5000361;28;1142;-70
2023/08/09 11:26:46;;;;;;;;;;;20.50;70.30;;;;;;4985513;28;1222;-70
2023/08/09 11:29:11;;;;;;;;;;;20.50;70.30;;;;;;4997885;28;927;-70
2023/08/09 11:31:40;;;;;;;;;;;20.50;70.30;;;;;;4997916;28;1376;-70
2023/08/09 11:34:06;;;;;;;;;;;20.50;70.30;;;;;;4995055;28;871;-70
2023/08/09 11:36:31;;;;;;;;;;;20.50;70.30;;;;;;4997203;28;1212;-69
2023/08/09 11:38:57;;;;;;;;;;;20.50;70.30;;;;;;4993323;28;859;-70
2023/08/09 11:41:25;;;;;;;;;;;20.50;70.30;;;;;;4996357;28;1898;-70
2023/08/09 11:43:52;;;;;;;;;;;20.50;70.30;;;;;;4984990;28;864;-70
2023/08/09 11:46:23;;;;;;;;;;;20.50;70.30;;;;;;4995845;28;1378;-70
2023/08/09 11:48:50;;;;;;;;;;;20.50;70.30;;;;;;4981300;28;872;-70
2023/08/09 11:51:16;;;;;;;;;;;20.50;70.40;;;;;;4999110;28;896;-70
2023/08/09 11:53:42;;;;;;;;;;;20.50;70.40;;;;;;4997118;28;1030;-70
2023/08/09 11:56:10;;;;;;;;;;;20.50;70.30;;;;;;4998197;28;1297;-70
2023/08/09 11:58:36;;;;;;;;;;;20.50;70.40;;;;;;4998287;28;1248;-70
2023/08/09 12:01:14;;;;;;;;;;;20.50;70.40;;;;;;4999228;28;1906;-70
2023/08/09 12:03:40;;;;;;;;;;;20.50;70.40;;;;;;4985421;28;935;-71
2023/08/09 12:06:05;;;;;;;;;;;20.50;70.40;;;;;;4984135;28;1372;-70
2023/08/09 12:08:32;;;;;;;;;;;20.50;70.40;;;;;;4998681;28;888;-70
2023/08/09 12:11:00;;;;;;;;;;;20.50;70.30;;;;;;4984085;28;869;-70
2023/08/09 12:13:25;;;;;;;;;;;20.50;70.30;;;;;;4996156;28;1216;-70
2023/08/09 12:15:51;;;;;;;;;;;20.50;70.30;;;;;;5000203;28;1272;-70
2023/08/09 12:18:16;;;;;;;;;;;20.50;70.40;;;;;;4998858;28;892;-70
2023/08/09 12:20:42;;;;;;;;;;;20.50;70.40;;;;;;4998619;28;1963;-70
2023/08/09 12:23:07;;;;;;;;;;;20.50;70.40;;;;;;4997945;28;939;-69
2023/08/09 12:25:33;;;;;;;;;;;20.50;70.40;;;;;;5001461;28;4821;-70
2023/08/09 12:27:58;;;;;;;;;;;20.50;70.40;;;;;;4999776;28;1089;-70
2023/08/09 12:30:24;;;;;;;;;;;20.50;70.40;;;;;;4999199;28;1182;-70
2023/08/09 12:32:49;;;;;;;;;;;20.50;70.40;;;;;;4999381;28;2105;-70
2023/08/09 12:35:15;;;;;;;;;;;20.50;70.40;;;;;;4989235;28;1707;-70
2023/08/09 12:37:40;;;;;;;;;;;20.50;70.40;;;;;;4997892;28;1931;-70
2023/08/09 12:40:07;;;;;;;;;;;20.50;70.40;;;;;;4997077;28;1443;-70
2023/08/09 12:42:33;;;;;;;;;;;20.50;70.30;;;;;;4999392;28;1960;-70
2023/08/09 12:44:58;;;;;;;;;;;20.50;70.40;;;;;;4984186;28;1432;-70
2023/08/09 12:47:24;;;;;;;;;;;20.50;70.40;;;;;;4983495;28;2109;-71
2023/08/09 12:49:49;;;;;;;;;;;20.50;70.40;;;;;;4997495;28;1423;-71
2023/08/09 12:52:15;;;;;;;;;;;20.50;70.40;;;;;;5002472;28;1443;-70
2023/08/09 12:54:41;;;;;;;;;;;20.50;70.40;;;;;;5001009;28;1265;-71
2023/08/09 12:57:07;;;;;;;;;;;20.50;70.40;;;;;;5004069;28;1425;-70
2023/08/09 12:59:33;;;;;;;;;;;20.50;70.40;;;;;;4998268;28;864;-71
2023/08/09 13:01:58;;;;;;;;;;;20.50;70.40;;;;;;4982479;28;1926;-70
2023/08/09 13:04:24;;;;;;;;;;;20.50;70.40;;;;;;4993449;28;884;-70
2023/08/09 13:06:50;;;;;;;;;;;20.50;70.40;;;;;;4996906;28;1229;-70
2023/08/09 13:09:16;;;;;;;;;;;20.50;70.40;;;;;;4997928;28;896;-70
2023/08/09 13:11:43;;;;;;;;;;;20.50;70.40;;;;;;4996574;28;1019;-71
2023/08/09 13:14:09;;;;;;;;;;;20.50;70.40;;;;;;4997561;28;912;-71
2023/08/09 13:16:34;;;;;;;;;;;20.50;70.40;;;;;;4981918;28;1255;-71
2023/08/09 13:19:00;;;;;;;;;;;20.50;70.50;;;;;;4994538;28;1319;-70
2023/08/09 13:21:25;;;;;;;;;;;20.50;70.40;;;;;;4998864;28;1961;-71
2023/08/09 13:23:51;;;;;;;;;;;20.50;70.40;;;;;;5001307;28;852;-70
2023/08/09 13:26:16;;;;;;;;;;;20.50;70.50;;;;;;4999863;28;1304;-70
2023/08/09 13:28:41;;;;;;;;;;;20.50;70.40;;;;;;5001199;28;1495;-70
2023/08/09 13:31:07;;;;;;;;;;;20.50;70.40;;;;;;5000168;28;888;-71
2023/08/09 13:33:33;;;;;;;;;;;20.50;70.50;;;;;;5002241;28;998;-70
2023/08/09 13:35:58;;;;;;;;;;;20.50;70.40;;;;;;5003894;28;1253;-71
2023/08/09 13:38:24;;;;;;;;;;;20.50;70.40;;;;;;5002023;28;995;-70
2023/08/09 13:40:50;;;;;;;;;;;20.50;70.40;;;;;;5000140;28;1972;-71
2023/08/09 13:43:15;;;;;;;;;;;20.50;70.50;;;;;;5001321;28;932;-69
2023/08/09 13:45:40;;;;;;;;;;;20.50;70.50;;;;;;5001559;28;1286;-69
2023/08/09 13:48:07;;;;;;;;;;;20.50;70.50;;;;;;5000324;28;1015;-69
2023/08/09 13:50:33;;;;;;;;;;;20.50;70.50;;;;;;5002500;28;868;-70
2023/08/09 13:52:58;;;;;;;;;;;20.50;71.30;;;;;;5002620;28;1091;-69
2023/08/09 13:55:24;;;;;;;;;;;20.50;70.50;;;;;;4999001;28;1682;-69
2023/08/09 13:57:49;;;;;;;;;;;20.50;70.50;;;;;;4983221;28;829;-70
2023/08/09 14:00:15;;;;;;;;;;;20.50;70.50;;;;;;5001602;28;1027;-69
2023/08/09 14:02:41;;;;;;;;;;;20.50;70.50;;;;;;5001018;28;1977;-70
2023/08/09 14:05:06;;;;;;;;;;;20.50;70.50;;;;;;5003190;28;1255;-69
2023/08/09 14:07:32;;;;;;;;;;;20.50;70.50;;;;;;4999390;28;855;-68
2023/08/09 14:09:57;;;;;;;;;;;20.50;70.50;;;;;;4999366;28;931;-70
2023/08/09 14:12:23;;;;;;;;;;;20.50;70.60;;;;;;5000903;28;1788;-69
2023/08/09 14:14:48;;;;;;;;;;;20.50;71.20;;;;;;5002618;28;1273;-69
2023/08/09 14:17:13;;;;;;;;;;;20.50;70.50;;;;;;5000940;28;885;-69
2023/08/09 14:19:39;;;;;;;;;;;20.50;70.50;;;;;;5000941;28;1295;-69
2023/08/09 14:22:05;;;;;;;;;;;20.50;70.50;;;;;;5000202;28;1903;-69
2023/08/09 14:24:30;;;;;;;;;;;20.50;70.50;;;;;;5003214;28;1256;-69
2023/08/09 14:26:55;;;;;;;;;;;20.50;70.60;;;;;;5000389;28;1555;-69
2023/08/09 14:29:21;;;;;;;;;;;20.50;70.50;;;;;;4985533;28;1421;-70